Time;durP1;ratioP1;P1;durP2;ratioP2;P2;SDS_P1;SDS_P2;PMS_P1;PMS_P2;Temp;Humidity;BMP_temperature;BMP_pressure;BME280_temperature;BME280_humidity;BME280_pressure;Samples;Min_cycle;Max_cycle;Signal;HPM_P1;HPM_P2
2021/11/07 00:00:07;;;;;;;14.20;7.42;;;;;;;2.72;84.96;100275.13;1739255;81;20970;-78
2021/11/07 00:02:39;;;;;;;17.80;8.70;;;;;;;2.72;85.11;100283.25;1741269;81;20915;-78
2021/11/07 00:05:04;;;;;;;16.67;8.45;;;;;;;2.72;85.11;100281.08;1742925;81;20856;-80
2021/11/07 00:08:30;;;;;;;18.25;9.18;;;;;;;2.72;85.11;100281.08;1716598;81;21552;-79
2021/11/07 00:10:37;;;;;;;24.67;8.60;;;;;;;2.69;85.18;100274.80;1711872;81;21204;-80
2021/11/07 00:12:40;;;;;;;19.65;8.08;;;;;;;2.69;85.21;100278.86;1715763;80;20952;-80
2021/11/07 00:15:03;;;;;;;16.00;8.70;;;;;;;2.65;85.22;100276.64;1718231;82;21015;-78
2021/11/07 00:17:33;;;;;;;12.37;7.83;;;;;;;2.63;85.51;100266.58;1697578;81;21573;-80
2021/11/07 00:20:12;;;;;;;15.80;7.78;;;;;;;2.61;85.55;100262.47;1698471;82;21517;-81
2021/11/07 00:22:57;;;;;;;14.40;8.13;;;;;;;2.58;85.55;100262.95;1734081;81;21187;-81
2021/11/07 00:28:01;;;;;;;18.42;8.35;;;;;;;2.53;85.87;100265.58;1720317;82;21010;-81
2021/11/07 00:33:23;;;;;;;16.77;9.65;;;;;;;2.51;86.10;100259.58;1716389;83;21481;-81
2021/11/07 00:38:18;;;;;;;16.20;8.53;;;;;;;2.45;86.65;100257.32;1715377;82;21425;-78
2021/11/07 00:43:43;;;;;;;17.73;8.03;;;;;;;2.43;86.77;100253.21;1717445;83;21078;-78
2021/11/07 00:46:15;;;;;;;16.40;9.15;;;;;;;2.40;86.85;100257.23;1724542;83;20883;-79
2021/11/07 00:51:18;;;;;;;15.90;8.98;;;;;;;2.37;86.87;100248.23;1693771;84;20943;-78
2021/11/07 00:54:00;;;;;;;15.03;8.43;;;;;;;2.32;86.76;100242.20;1715796;83;20946;-78
2021/11/07 00:59:08;;;;;;;18.07;9.53;;;;;;;2.24;86.89;100237.73;1715205;83;21013;-78
2021/11/07 01:01:31;;;;;;;15.30;8.85;;;;;;;2.21;87.06;100234.16;1715079;82;21227;-79
2021/11/07 01:04:01;;;;;;;14.20;8.70;;;;;;;2.18;87.10;100228.70;1745494;81;21506;-79
2021/11/07 01:06:27;;;;;;;19.65;10.15;;;;;;;2.17;87.17;100235.72;1748423;81;20848;-79
2021/11/07 01:08:53;;;;;;;18.35;10.40;;;;;;;2.16;87.21;100239.48;1745334;81;21446;-79
2021/11/07 01:11:20;;;;;;;21.45;9.55;;;;;;;2.14;87.39;100228.08;1746715;81;20982;-79
2021/11/07 01:13:46;;;;;;;17.52;9.78;;;;;;;2.12;87.71;100220.73;1751248;81;21520;-79
2021/11/07 01:16:15;;;;;;;18.92;9.05;;;;;;;2.11;87.86;100222.61;1723798;81;21571;-78
2021/11/07 01:18:42;;;;;;;21.17;10.38;;;;;;;2.09;88.11;100222.57;1702883;83;21009;-79
2021/11/07 01:21:12;;;;;;;18.37;9.98;;;;;;;2.08;88.15;100220.39;1725427;80;21051;-80
2021/11/07 01:23:53;;;;;;;21.25;9.50;;;;;;;2.07;88.48;100220.10;1750714;80;20949;-79
2021/11/07 01:26:20;;;;;;;17.95;8.73;;;;;;;2.07;88.69;100217.39;1726676;80;21187;-79
2021/11/07 01:28:46;;;;;;;16.32;9.33;;;;;;;2.08;88.67;100210.09;1729015;81;21553;-80
2021/11/07 01:31:09;;;;;;;21.75;9.70;;;;;;;2.07;88.68;100211.16;1701838;83;21124;-82
2021/11/07 01:33:36;;;;;;;14.60;8.95;;;;;;;2.05;88.77;100197.86;1714929;83;21450;-82
2021/11/07 01:36:22;;;;;;;15.68;9.40;;;;;;;2.05;89.03;100192.97;1718339;81;21426;-82
2021/11/07 01:38:47;;;;;;;16.95;10.15;;;;;;;2.05;89.07;100195.15;1715282;83;21163;-81
2021/11/07 01:41:25;;;;;;;16.67;9.80;;;;;;;2.06;89.11;100192.73;1718147;83;21498;-80
2021/11/07 01:43:52;;;;;;;18.62;9.88;;;;;;;2.04;89.25;100189.98;1714385;83;20987;-83
2021/11/07 01:48:59;;;;;;;16.73;9.48;;;;;;;2.04;89.51;100198.92;1714472;82;20998;-81
2021/11/07 01:51:21;;;;;;;16.85;9.53;;;;;;;2.03;89.57;100189.16;1709903;82;21805;-81
2021/11/07 01:53:48;;;;;;;21.30;10.65;;;;;;;2.06;89.74;100189.20;1711425;83;20943;-82
2021/11/07 01:56:15;;;;;;;16.00;9.63;;;;;;;2.05;89.78;100184.31;1699925;82;20900;-80
2021/11/07 01:58:43;;;;;;;19.45;10.60;;;;;;;2.07;89.78;100190.84;1685476;83;21023;-79
2021/11/07 02:01:10;;;;;;;22.17;10.82;;;;;;;2.07;89.87;100186.78;1699738;83;20947;-80
2021/11/07 02:03:38;;;;;;;21.55;10.23;;;;;;;2.08;90.03;100191.13;1682120;83;21026;-80
2021/11/07 02:06:05;;;;;;;18.05;10.45;;;;;;;2.09;90.15;100186.83;1698991;83;21566;-81
2021/11/07 02:08:32;;;;;;;16.05;9.68;;;;;;;2.10;90.18;100191.17;1714581;83;21506;-78
2021/11/07 02:10:58;;;;;;;20.92;9.88;;;;;;;2.12;90.22;100189.58;1711211;83;20928;-78
2021/11/07 02:13:26;;;;;;;16.15;8.75;;;;;;;2.10;90.20;100185.77;1690158;83;20984;-80
2021/11/07 02:15:53;;;;;;;15.95;9.30;;;;;;;2.11;90.27;100190.64;1705148;83;21116;-79
2021/11/07 02:18:20;;;;;;;17.10;9.55;;;;;;;2.10;90.30;100183.05;1676632;83;21032;-79
2021/11/07 02:20:47;;;;;;;17.57;9.50;;;;;;;2.08;90.29;100180.30;1688357;82;20903;-80
2021/11/07 02:23:18;;;;;;;22.17;10.80;;;;;;;2.07;90.42;100182.19;1707911;82;20931;-80
2021/11/07 02:25:45;;;;;;;20.62;10.23;;;;;;;2.07;90.47;100178.12;1723550;81;21470;-81
2021/11/07 02:28:29;;;;;;;18.27;9.20;;;;;;;2.09;90.42;100186.00;1693145;83;22016;-81
2021/11/07 02:30:56;;;;;;;17.92;9.93;;;;;;;2.10;90.55;100188.47;1701099;82;21412;-79
2021/11/07 02:33:23;;;;;;;16.93;10.00;;;;;;;2.12;90.64;100184.16;1682226;83;21438;-78
2021/11/07 02:35:50;;;;;;;17.75;10.38;;;;;;;2.13;90.72;100185.27;1716475;83;21011;-76
2021/11/07 02:38:17;;;;;;;19.82;9.83;;;;;;;2.14;90.64;100186.91;1703708;83;20924;-76
2021/11/07 02:40:44;;;;;;;17.12;9.88;;;;;;;2.15;90.55;100191.80;1712165;83;21533;-75
2021/11/07 02:43:11;;;;;;;15.80;9.25;;;;;;;2.15;90.51;100190.45;1680624;82;21078;-75
2021/11/07 02:45:38;;;;;;;16.95;9.53;;;;;;;2.13;90.45;100189.87;1704174;83;21989;-75
2021/11/07 02:48:04;;;;;;;18.50;10.32;;;;;;;2.11;90.45;100187.94;1703637;83;21551;-76
2021/11/07 02:50:31;;;;;;;22.87;10.43;;;;;;;2.09;90.40;100194.13;1661517;84;21003;-77
2021/11/07 02:52:58;;;;;;;24.65;12.10;;;;;;;2.08;90.60;100197.38;1650845;85;21162;-77
2021/11/07 02:55:25;;;;;;;26.48;11.60;;;;;;;2.07;90.98;100199.79;1716525;83;20896;-78
2021/11/07 02:57:59;;;;;;;19.98;10.93;;;;;;;2.07;90.95;100196.26;1709597;82;20951;-78
2021/11/07 03:00:29;;;;;;;18.20;9.58;;;;;;;2.03;90.48;100187.80;1684808;84;20962;-79
2021/11/07 03:02:56;;;;;;;22.07;10.58;;;;;;;1.96;90.22;100203.37;1663609;84;21474;-80
2021/11/07 03:05:23;;;;;;;20.32;10.48;;;;;;;1.84;90.01;100196.66;1707215;83;21950;-78
2021/11/07 03:07:50;;;;;;;22.40;10.90;;;;;;;1.73;89.89;100189.45;1686184;82;21007;-76
2021/11/07 03:10:18;;;;;;;22.90;11.43;;;;;;;1.62;89.90;100195.73;1717080;83;20911;-77
2021/11/07 03:12:46;;;;;;;27.80;11.22;;;;;;;1.50;90.06;100193.59;1700625;83;20967;-79
2021/11/07 03:15:13;;;;;;;23.18;12.05;;;;;;;1.42;90.66;100193.44;1714893;83;21054;-79
2021/11/07 03:17:41;;;;;;;22.35;11.45;;;;;;;1.37;90.88;100187.09;1703213;83;21531;-80
2021/11/07 03:20:10;;;;;;;23.98;11.88;;;;;;;1.36;91.76;100186.28;1685966;83;20939;-79
2021/11/07 03:22:37;;;;;;;22.58;10.90;;;;;;;1.41;92.10;100189.62;1718193;83;20907;-80
2021/11/07 03:25:06;;;;;;;21.40;11.08;;;;;;;1.45;92.32;100186.19;1714345;81;21549;-80
2021/11/07 03:27:39;;;;;;;22.55;11.50;;;;;;;1.50;92.39;100188.18;1737662;81;21486;-81
2021/11/07 03:30:13;;;;;;;19.12;10.90;;;;;;;1.52;92.43;100187.41;1727691;81;21204;-81
2021/11/07 03:32:39;;;;;;;20.40;11.22;;;;;;;1.54;92.43;100195.58;1742421;81;21395;-79
2021/11/07 03:35:16;;;;;;;22.95;11.25;;;;;;;1.56;92.34;100192.09;1693736;82;20945;-80
2021/11/07 03:37:44;;;;;;;28.60;14.18;;;;;;;1.57;92.28;100188.86;1722295;81;21475;-79
2021/11/07 03:40:09;;;;;;;22.62;12.33;;;;;;;1.56;92.25;100187.22;1734726;81;21493;-78
2021/11/07 03:42:37;;;;;;;29.48;14.40;;;;;;;1.56;92.74;100175.04;1728760;80;21126;-78
2021/11/07 03:45:05;;;;;;;29.70;14.55;;;;;;;1.58;92.95;100175.09;1747185;81;21026;-78
2021/11/07 03:47:32;;;;;;;41.80;16.40;;;;;;;1.62;92.97;100171.37;1742539;81;20898;-76
2021/11/07 03:50:01;;;;;;;25.68;12.73;;;;;;;1.66;92.90;100172.53;1746137;81;21005;-77
2021/11/07 03:52:27;;;;;;;24.72;11.88;;;;;;;1.67;92.78;100167.94;1682656;83;20865;-76
2021/11/07 03:54:54;;;;;;;21.25;11.90;;;;;;;1.69;92.83;100159.87;1719610;81;21759;-78
2021/11/07 03:57:21;;;;;;;20.97;11.95;;;;;;;1.73;93.19;100158.31;1737221;80;20991;-79
2021/11/07 03:59:49;;;;;;;20.02;10.55;;;;;;;1.80;93.19;100142.72;1722364;80;21029;-80
2021/11/07 04:02:16;;;;;;;21.17;11.70;;;;;;;1.86;92.97;100138.21;1738980;81;20966;-78
2021/11/07 04:04:44;;;;;;;21.93;11.35;;;;;;;1.91;92.87;100144.54;1739857;81;21009;-77
2021/11/07 04:07:11;;;;;;;23.15;11.38;;;;;;;1.96;92.81;100137.03;1733148;81;21559;-79
2021/11/07 04:09:37;;;;;;;20.80;10.63;;;;;;;2.00;92.50;100139.55;1735132;82;20975;-77
2021/11/07 04:12:04;;;;;;;20.85;11.40;;;;;;;2.02;92.19;100142.01;1743848;81;22496;-78
2021/11/07 04:14:34;;;;;;;22.77;11.08;;;;;;;2.01;92.00;100139.02;1737640;82;21110;-80
2021/11/07 04:17:05;;;;;;;19.20;10.40;;;;;;;2.01;91.91;100134.95;1738083;80;21062;-79
2021/11/07 04:19:32;;;;;;;22.50;12.63;;;;;;;2.01;91.80;100136.30;1721971;82;21089;-80
2021/11/07 04:22:03;;;;;;;20.00;10.28;;;;;;;1.99;91.63;100133.30;1719420;82;20895;-79
2021/11/07 04:24:27;;;;;;;17.57;10.72;;;;;;;1.97;91.45;100130.55;1735946;81;20985;-80
2021/11/07 04:26:54;;;;;;;21.15;11.15;;;;;;;1.94;91.48;100132.40;1735751;80;21549;-81
2021/11/07 04:29:22;;;;;;;19.62;11.18;;;;;;;1.91;91.56;100132.89;1697862;83;21511;-77
2021/11/07 04:31:49;;;;;;;19.23;10.40;;;;;;;1.91;91.76;100127.47;1732611;81;21125;-77
2021/11/07 04:34:15;;;;;;;18.32;10.35;;;;;;;1.91;91.75;100143.19;1701044;83;20979;-77
2021/11/07 04:36:42;;;;;;;19.73;10.70;;;;;;;1.91;91.89;100137.77;1710690;82;21502;-78
2021/11/07 04:39:09;;;;;;;24.75;11.95;;;;;;;1.90;91.73;100142.90;1686469;82;21555;-78
2021/11/07 04:41:37;;;;;;;16.85;9.75;;;;;;;1.88;91.61;100146.38;1707275;82;21034;-78
2021/11/07 04:44:04;;;;;;;22.35;10.80;;;;;;;1.85;91.50;100148.22;1692652;83;21549;-79
2021/11/07 04:46:32;;;;;;;22.15;10.48;;;;;;;1.80;91.55;100153.55;1701510;83;21007;-78
2021/11/07 04:48:59;;;;;;;20.25;10.85;;;;;;;1.78;91.78;100152.97;1704903;82;21066;-81
2021/11/07 04:51:28;;;;;;;21.52;11.05;;;;;;;1.77;91.81;100146.44;1705387;83;21543;-81
2021/11/07 04:53:55;;;;;;;18.90;11.25;;;;;;;1.76;91.92;100145.62;1706090;82;21447;-82
2021/11/07 04:56:22;;;;;;;21.35;11.43;;;;;;;1.77;92.08;100149.97;1705802;81;21116;-84
2021/11/07 04:58:48;;;;;;;17.42;9.83;;;;;;;1.79;92.04;100153.78;1698371;82;21619;-85
2021/11/07 05:01:16;;;;;;;22.37;11.83;;;;;;;1.78;92.12;100140.78;1691057;82;20967;-84
2021/11/07 05:03:44;;;;;;;19.23;10.65;;;;;;;1.79;92.23;100138.90;1688898;82;21084;-82
2021/11/07 05:06:10;;;;;;;25.00;11.45;;;;;;;1.79;92.20;100137.55;1702478;82;21594;-83
2021/11/07 05:08:37;;;;;;;17.10;10.32;;;;;;;1.78;92.05;100141.31;1701858;82;21164;-82
2021/11/07 05:11:04;;;;;;;21.93;11.53;;;;;;;1.74;91.88;100134.75;1709371;82;21134;-85
2021/11/07 05:13:31;;;;;;;22.48;11.95;;;;;;;1.71;91.86;100133.38;1698408;82;21108;-83
2021/11/07 05:15:58;;;;;;;18.10;10.45;;;;;;;1.68;91.93;100127.09;1728916;79;21164;-84
2021/11/07 05:18:26;;;;;;;21.07;11.65;;;;;;;1.67;91.99;100120.58;1728944;81;20992;-82
2021/11/07 05:20:53;;;;;;;19.80;11.08;;;;;;;1.63;91.86;100116.17;1712752;81;21900;-76
2021/11/07 05:23:21;;;;;;;25.00;12.37;;;;;;;1.58;91.71;100126.91;1744401;81;20947;-76
2021/11/07 05:25:48;;;;;;;23.35;11.38;;;;;;;1.55;91.92;100143.63;1726347;80;20985;-79
2021/11/07 05:28:15;;;;;;;22.73;13.10;;;;;;;1.55;92.12;100146.34;1734004;81;21011;-78
2021/11/07 05:30:42;;;;;;;25.55;12.47;;;;;;;1.54;92.24;100143.34;1747586;80;20983;-78
2021/11/07 05:33:10;;;;;;;25.00;12.98;;;;;;;1.56;92.48;100152.86;1745404;80;21612;-71
2021/11/07 05:35:37;;;;;;;20.88;12.70;;;;;;;1.60;92.93;100149.14;1735202;80;20911;-71
2021/11/07 05:38:03;;;;;;;21.90;11.97;;;;;;;1.64;92.94;100143.00;1731978;81;20932;-71
2021/11/07 05:40:31;;;;;;;28.35;12.33;;;;;;;1.67;92.78;100143.05;1704498;83;21090;-70
2021/11/07 05:42:58;;;;;;;21.15;12.33;;;;;;;1.69;92.69;100143.62;1703525;83;21007;-70
2021/11/07 05:45:25;;;;;;;24.80;12.45;;;;;;;1.73;92.60;100148.84;1741794;81;21149;-71
2021/11/07 05:47:53;;;;;;;27.02;12.40;;;;;;;1.76;92.54;100150.21;1694831;82;20974;-72
2021/11/07 05:50:22;;;;;;;21.85;12.40;;;;;;;1.80;92.52;100145.95;1691008;83;21577;-71
2021/11/07 05:52:49;;;;;;;24.85;12.30;;;;;;;1.84;92.51;100147.94;1754269;81;21006;-68
2021/11/07 05:55:15;;;;;;;24.98;13.13;;;;;;;1.89;92.46;100141.78;1689035;81;21031;-69
2021/11/07 05:57:42;;;;;;;24.05;12.65;;;;;;;1.94;92.42;100137.81;1749127;81;21145;-69
2021/11/07 06:00:11;;;;;;;27.07;14.07;;;;;;;2.00;92.28;100140.90;1740321;81;20932;-68
2021/11/07 06:02:41;;;;;;;21.57;13.15;;;;;;;2.07;92.19;100145.63;1735909;81;21006;-69
2021/11/07 06:05:09;;;;;;;20.12;11.63;;;;;;;2.15;92.06;100154.70;1741184;81;21442;-74
2021/11/07 06:07:36;;;;;;;25.35;12.37;;;;;;;2.23;91.96;100154.83;1744430;81;21537;-70
2021/11/07 06:10:03;;;;;;;24.67;13.08;;;;;;;2.30;91.69;100163.61;1734472;80;21201;-69
2021/11/07 06:12:31;;;;;;;22.67;11.60;;;;;;;2.39;91.41;100171.59;1749264;80;20886;-69
2021/11/07 06:14:59;;;;;;;20.52;11.88;;;;;;;2.50;91.41;100165.80;1730842;81;20868;-68
2021/11/07 06:17:27;;;;;;;21.50;11.63;;;;;;;2.78;90.46;100163.50;1724637;82;21427;-69
2021/11/07 06:19:54;;;;;;;22.65;12.15;;;;;;;2.78;90.46;100163.50;1732796;81;20952;-68
2021/11/07 06:22:21;;;;;;;23.02;12.00;;;;;;;2.91;90.36;100168.55;1726039;82;21146;-74
2021/11/07 06:24:47;;;;;;;20.68;12.07;;;;;;;3.08;90.05;100158.47;1720562;83;20896;-71
2021/11/07 06:27:14;;;;;;;23.00;11.70;;;;;;;3.49;89.04;100157.59;1742696;81;20935;-73
2021/11/07 06:29:42;;;;;;;20.90;11.22;;;;;;;4.04;87.19;100146.48;1745616;81;21101;-72
2021/11/07 06:32:10;;;;;;;21.23;11.75;;;;;;;5.27;81.21;100139.31;1750374;81;21561;-73
2021/11/07 06:34:37;;;;;;;21.07;10.88;;;;;;;5.27;81.21;100139.31;1750818;81;21594;-69
2021/11/07 06:37:08;;;;;;;22.42;11.40;;;;;;;5.63;79.30;100136.99;1743627;80;21079;-69
2021/11/07 06:39:35;;;;;;;18.80;10.53;;;;;;;5.99;78.16;100130.25;1740426;81;21419;-70
2021/11/07 06:42:03;;;;;;;18.92;10.63;;;;;;;6.45;76.22;100124.23;1689692;83;20941;-69
2021/11/07 06:44:34;;;;;;;19.52;10.82;;;;;;;6.82;75.03;100118.98;1706157;83;20999;-70
2021/11/07 06:47:03;;;;;;;23.05;10.60;;;;;;;7.18;72.94;100110.92;1715380;83;21098;-70
2021/11/07 06:49:33;;;;;;;19.07;10.70;;;;;;;7.52;72.37;100113.73;1708576;82;20904;-69
2021/11/07 06:52:01;;;;;;;22.27;10.18;;;;;;;7.97;71.04;100102.80;1714811;83;20908;-68
2021/11/07 06:54:30;;;;;;;20.92;11.30;;;;;;;8.41;68.24;100100.80;1715298;83;20948;-70
2021/11/07 06:56:58;;;;;;;22.17;10.75;;;;;;;8.69;66.61;100101.05;1715393;83;21455;-72
2021/11/07 06:59:27;;;;;;;16.20;9.78;;;;;;;8.89;64.68;100099.45;1715685;83;21111;-72
2021/11/07 07:01:58;;;;;;;15.38;10.20;;;;;;;9.03;63.48;100088.63;1715242;83;20924;-80
2021/11/07 07:04:26;;;;;;;16.95;10.08;;;;;;;9.12;63.23;100082.20;1734674;80;21216;-74
2021/11/07 07:06:53;;;;;;;17.27;10.75;;;;;;;9.19;62.63;100077.19;1719224;82;21236;-74
2021/11/07 07:09:26;;;;;;;22.60;10.50;;;;;;;9.28;61.82;100078.14;1744177;81;20930;-72
2021/11/07 07:11:54;;;;;;;20.88;11.00;;;;;;;9.39;62.28;100083.48;1746877;81;21074;-75
2021/11/07 07:14:30;;;;;;;18.48;10.78;;;;;;;9.62;61.82;100085.36;1748100;81;21499;-73
2021/11/07 07:30:07;;;;;;;15.40;8.80;;;;;;;10.56;56.69;100084.63;1704503;84;20981;-68
2021/11/07 07:35:04;;;;;;;17.85;9.65;;;;;;;10.62;56.01;100076.30;1727497;80;20933;-74
2021/11/07 07:37:30;;;;;;;16.65;9.00;;;;;;;10.68;55.67;100081.95;1761164;80;22208;-72
2021/11/07 07:39:58;;;;;;;16.57;9.30;;;;;;;10.77;55.37;100084.24;1749739;80;20943;-72
2021/11/07 07:42:25;;;;;;;13.10;9.10;;;;;;;10.86;54.85;100088.73;1743482;80;21052;-74
2021/11/07 07:44:55;;;;;;;15.08;8.63;;;;;;;10.99;55.29;100076.65;1719983;81;20973;-71
2021/11/07 07:47:24;;;;;;;12.95;9.10;;;;;;;11.29;54.39;100080.70;1743158;80;21011;-70
2021/11/07 07:49:52;;;;;;;16.82;8.90;;;;;;;11.53;54.14;100066.97;1742684;81;21820;-73
2021/11/07 07:52:23;;;;;;;14.65;8.98;;;;;;;11.73;53.30;100054.66;1698923;81;21107;-73
2021/11/07 07:54:51;;;;;;;14.18;9.30;;;;;;;11.80;52.79;100063.89;1701964;81;21084;-73
2021/11/07 07:57:21;;;;;;;16.85;9.30;;;;;;;11.72;53.13;100053.03;1748439;81;21465;-77
2021/11/07 07:59:50;;;;;;;20.75;9.93;;;;;;;11.53;52.92;100064.22;1692926;82;21715;-73
2021/11/07 08:02:19;;;;;;;16.10;9.75;;;;;;;11.18;53.38;100058.94;1714686;82;21145;-72
2021/11/07 08:04:46;;;;;;;20.75;12.15;;;;;;;11.06;54.49;100055.08;1727949;80;20994;-75
2021/11/07 08:07:15;;;;;;;19.87;9.88;;;;;;;11.32;54.27;100051.23;1725803;80;21148;-76
2021/11/07 08:09:42;;;;;;;14.78;9.28;;;;;;;11.64;53.31;100057.90;1749938;80;21004;-68
2021/11/07 08:12:09;;;;;;;17.48;9.75;;;;;;;11.90;52.85;100058.15;1699340;82;21468;-71
2021/11/07 08:14:36;;;;;;;15.23;9.75;;;;;;;12.11;52.38;100053.78;1711818;80;21151;-71
2021/11/07 08:17:04;;;;;;;15.75;9.88;;;;;;;12.18;52.08;100042.30;1735229;81;20956;-68
2021/11/07 08:19:31;;;;;;;18.65;10.00;;;;;;;12.07;51.60;100034.89;1688678;83;21034;-70
2021/11/07 08:21:58;;;;;;;17.32;10.05;;;;;;;11.85;51.95;100032.95;1681463;84;20992;-68
2021/11/07 08:24:26;;;;;;;15.28;9.53;;;;;;;11.74;52.60;100025.22;1680444;83;21070;-69
2021/11/07 08:26:53;;;;;;;17.50;9.43;;;;;;;11.70;52.60;100015.41;1685315;84;22458;-71
2021/11/07 08:29:20;;;;;;;18.70;10.38;;;;;;;11.64;52.49;100013.09;1714501;83;20998;-68
2021/11/07 08:31:50;;;;;;;18.82;10.88;;;;;;;11.45;53.00;100009.97;1722794;81;21069;-70
2021/11/07 08:34:16;;;;;;;17.42;10.25;;;;;;;11.18;53.41;100002.59;1716225;83;20911;-71
2021/11/07 08:36:58;;;;;;;15.10;10.00;;;;;;;10.93;54.41;100005.92;1743365;81;21058;-71
2021/11/07 08:39:40;;;;;;;19.35;11.68;;;;;;;10.86;55.75;100007.70;1707218;81;21017;-67
2021/11/07 08:42:19;;;;;;;19.48;11.48;;;;;;;10.86;56.63;100016.50;1744072;81;21055;-70
2021/11/07 09:04:22;;;;;;;20.30;11.68;;;;;;;10.98;57.11;99974.19;1685168;83;26856;-70
2021/11/07 09:09:26;;;;;;;18.15;10.78;;;;;;;11.20;56.57;99961.07;1685885;83;20917;-70
2021/11/07 09:11:58;;;;;;;16.55;9.48;;;;;;;11.25;56.54;99960.39;1711500;83;20986;-76
2021/11/07 09:14:34;;;;;;;20.85;10.95;;;;;;;11.44;56.48;99959.42;1684536;84;20990;-71
2021/11/07 09:16:59;;;;;;;17.27;9.83;;;;;;;11.88;55.54;99944.30;1713157;83;20935;-71
2021/11/07 09:19:31;;;;;;;17.12;10.98;;;;;;;12.33;55.12;99946.11;1716032;81;20965;-71
2021/11/07 09:22:06;;;;;;;16.73;10.50;;;;;;;12.64;54.07;99943.31;1742026;81;21022;-70
2021/11/07 09:40:12;;;;;;;13.48;8.58;;;;;;;13.65;50.81;99907.05;1738174;81;21415;-68
2021/11/07 09:45:45;;;;;;;12.43;8.93;;;;;;;13.82;49.66;99889.08;1754525;80;21845;-67
2021/11/07 09:48:14;;;;;;;13.32;7.60;;;;;;;13.72;49.36;99890.80;1766491;80;21443;-67
2021/11/07 09:50:37;;;;;;;12.60;8.30;;;;;;;13.57;48.82;99883.05;1726207;80;21387;-68
2021/11/07 09:53:09;;;;;;;12.30;8.18;;;;;;;13.33;49.54;99889.64;1767099;80;21047;-68
2021/11/07 09:55:38;;;;;;;12.45;7.50;;;;;;;13.31;49.37;99899.61;1764159;80;20924;-68
2021/11/07 09:58:06;;;;;;;20.45;8.30;;;;;;;13.34;49.68;99898.16;1770224;80;21832;-68
2021/11/07 10:00:48;;;;;;;15.18;7.65;;;;;;;13.39;49.48;99901.55;1748879;80;20979;-75
2021/11/07 10:03:17;;;;;;;12.13;7.33;;;;;;;13.25;49.63;99891.86;1740524;81;20911;-70
2021/11/07 10:05:50;;;;;;;14.30;8.70;;;;;;;12.80;50.02;99876.41;1749736;82;21485;-71
2021/11/07 10:08:17;;;;;;;14.25;8.13;;;;;;;12.21;51.51;99877.33;1691571;83;21125;-76
2021/11/07 10:10:56;;;;;;;13.08;8.28;;;;;;;11.74;52.86;99880.27;1712462;83;21162;-74
2021/11/07 10:13:26;;;;;;;15.15;8.98;;;;;;;11.41;54.17;99870.14;1715005;82;21076;-73
2021/11/07 10:16:04;;;;;;;15.15;8.70;;;;;;;11.27;55.53;99872.14;1663405;83;33927;-70
2021/11/07 10:18:49;;;;;;;20.48;8.83;;;;;;;11.31;56.08;99869.58;1718101;82;21018;-68
2021/11/07 10:21:21;;;;;;;15.55;8.23;;;;;;;11.37;56.30;99880.70;1684090;83;21000;-67
2021/11/07 10:24:05;;;;;;;15.32;8.73;;;;;;;11.31;55.91;99865.45;1708370;82;21562;-69
2021/11/07 10:26:39;;;;;;;13.03;8.43;;;;;;;10.88;56.54;99850.28;1738098;81;21141;-68
2021/11/07 10:29:10;;;;;;;12.68;8.30;;;;;;;10.47;57.75;99849.00;1746376;81;20963;-68
2021/11/07 10:37:26;;;;;;;13.22;8.95;;;;;;;9.93;60.60;99849.83;1731711;81;21118;-71
2021/11/07 10:52:05;;;;;;;17.20;10.05;;;;;;;10.06;61.95;99844.09;1687268;85;21031;-68
2021/11/07 10:54:02;;;;;;;17.23;9.03;;;;;;;9.88;61.66;99838.41;1694881;83;21482;-68
2021/11/07 10:56:30;;;;;;;15.63;8.70;;;;;;;9.74;62.19;99841.72;1694950;81;21193;-68
2021/11/07 10:59:00;;;;;;;18.32;8.88;;;;;;;9.66;62.22;99844.34;1719263;82;21097;-68
2021/11/07 11:01:31;;;;;;;13.80;9.13;;;;;;;9.57;62.76;99838.19;1693321;82;20924;-69
2021/11/07 11:04:02;;;;;;;16.05;10.10;;;;;;;9.54;63.07;99831.94;1737709;81;21830;-68
2021/11/07 11:06:30;;;;;;;12.90;8.53;;;;;;;9.53;63.18;99847.31;1706111;81;21121;-68
2021/11/07 11:09:09;;;;;;;13.78;8.38;;;;;;;9.58;63.40;99849.97;1741984;82;20927;-68
2021/11/07 11:11:43;;;;;;;19.50;8.93;;;;;;;9.67;63.37;99829.52;1696913;82;20994;-67
2021/11/07 11:17:03;;;;;;;13.55;7.42;;;;;;;9.78;62.58;99823.55;1723873;81;20912;-69
2021/11/07 11:20:22;;;;;;;15.43;7.40;;;;;;;9.78;62.26;99822.73;1738412;82;20868;-67
2021/11/07 11:25:31;;;;;;;12.43;8.40;;;;;;;9.66;62.38;99795.81;1729260;82;21470;-67
2021/11/07 11:28:15;;;;;;;12.90;6.78;;;;;;;9.59;62.27;99791.30;1716547;82;21889;-68
2021/11/07 11:38:47;;;;;;;13.88;7.53;;;;;;;9.86;62.03;99763.86;1691886;84;21027;-68
2021/11/07 11:41:16;;;;;;;16.20;6.92;;;;;;;9.93;61.06;99781.27;1719050;82;20985;-67
2021/11/07 11:43:45;;;;;;;13.35;7.60;;;;;;;9.85;61.20;99778.69;1727818;82;21858;-67
2021/11/07 11:46:39;;;;;;;14.58;8.63;;;;;;;9.80;61.03;99777.45;1699863;82;21514;-67
2021/11/07 12:00:51;;;;;;;18.87;9.75;;;;;;;9.15;62.35;99750.20;1719665;82;20887;-67
2021/11/07 12:03:47;;;;;;;18.90;10.13;;;;;;;9.09;63.06;99751.41;1728653;82;21441;-66
2021/11/07 12:09:40;;;;;;;15.15;8.20;;;;;;;9.04;63.61;99731.51;1714231;83;20991;-66
2021/11/07 12:12:26;;;;;;;10.50;6.25;;;;;;;8.99;63.31;99722.02;1740158;80;21114;-67
2021/11/07 12:15:07;;;;;;;14.87;6.97;;;;;;;8.94;62.99;99716.07;1673108;83;21131;-67
2021/11/07 12:17:37;;;;;;;15.05;7.30;;;;;;;8.86;63.00;99714.02;1698334;83;20999;-67
2021/11/07 12:20:29;;;;;;;11.90;7.20;;;;;;;8.80;64.07;99723.43;1678363;83;20964;-70
2021/11/07 12:23:21;;;;;;;16.73;7.95;;;;;;;8.75;62.96;99713.94;1695274;81;21600;-67
2021/11/07 12:25:52;;;;;;;16.20;8.55;;;;;;;8.72;63.50;99702.22;1699920;82;21151;-70
2021/11/07 12:28:21;;;;;;;18.87;11.15;;;;;;;8.74;64.13;99708.20;1696236;83;20893;-69
2021/11/07 12:31:08;;;;;;;13.10;7.27;;;;;;;8.72;64.49;99700.84;1712044;83;21017;-67
2021/11/07 12:34:05;;;;;;;16.35;8.63;;;;;;;8.70;64.33;99697.04;1701399;83;20988;-71
2021/11/07 12:42:32;;;;;;;12.20;6.90;;;;;;;8.51;64.06;99679.88;1689252;82;20927;-67
2021/11/07 12:45:28;;;;;;;13.98;6.53;;;;;;;8.46;64.45;99689.53;1740742;81;21087;-68
2021/11/07 12:48:04;;;;;;;11.00;6.47;;;;;;;8.47;64.70;99681.03;1692912;81;21062;-71
2021/11/07 12:50:55;;;;;;;12.63;7.58;;;;;;;8.49;64.94;99668.42;1715681;83;20921;-70
2021/11/07 12:53:27;;;;;;;14.78;7.08;;;;;;;8.46;65.13;99656.15;1687804;82;21268;-70
2021/11/07 12:55:58;;;;;;;17.17;7.80;;;;;;;8.47;65.42;99654.22;1749529;81;21016;-70
2021/11/07 12:58:29;;;;;;;13.90;7.90;;;;;;;8.48;65.81;99649.82;1725454;80;21026;-70
2021/11/07 13:01:03;;;;;;;21.62;13.60;;;;;;;8.50;66.33;99640.76;1655788;84;21571;-72
2021/11/07 13:03:34;;;;;;;18.55;9.83;;;;;;;8.50;66.71;99635.84;1712407;82;20992;-72
2021/11/07 13:06:03;;;;;;;14.65;9.00;;;;;;;8.51;67.45;99636.91;1747078;81;22140;-72
2021/11/07 13:08:42;;;;;;;16.48;10.18;;;;;;;8.49;67.08;99633.66;1698786;83;21004;-70
2021/11/07 13:11:16;;;;;;;17.67;8.40;;;;;;;8.46;67.29;99637.00;1678629;81;21086;-75
2021/11/07 13:13:55;;;;;;;16.17;8.75;;;;;;;8.42;67.63;99633.23;1683281;85;21456;-74
2021/11/07 13:19:26;;;;;;;15.32;8.58;;;;;;;8.39;67.37;99639.30;1710057;83;21538;-77
2021/11/07 13:27:10;;;;;;;16.20;7.37;;;;;;;8.27;67.49;99628.80;1654538;84;20960;-71
2021/11/07 13:29:47;;;;;;;17.10;8.88;;;;;;;8.22;67.53;99619.86;1695879;82;21046;-71
2021/11/07 13:32:36;;;;;;;12.30;7.28;;;;;;;8.17;67.24;99619.94;1724166;82;21166;-73
2021/11/07 13:35:22;;;;;;;16.87;9.05;;;;;;;8.12;67.43;99614.55;1734545;81;20923;-74
2021/11/07 13:38:07;;;;;;;23.47;12.28;;;;;;;8.07;67.67;99604.53;1704518;81;21003;-75
2021/11/07 13:40:38;;;;;;;20.95;10.98;;;;;;;8.03;67.86;99603.51;1690098;82;21038;-76
2021/11/07 13:43:18;;;;;;;17.50;10.60;;;;;;;8.02;68.01;99590.13;1707776;81;20968;-71
2021/11/07 13:45:49;;;;;;;15.93;8.85;;;;;;;8.00;68.13;99582.78;1677607;82;21169;-74
2021/11/07 13:48:31;;;;;;;15.60;8.43;;;;;;;7.99;68.26;99579.80;1692819;81;21339;-73
2021/11/07 13:51:03;;;;;;;17.85;9.33;;;;;;;7.91;68.65;99582.09;1689617;81;20957;-72